Time;durP1;ratioP1;P1;durP2;ratioP2;P2;SDS_P1;SDS_P2;PMS_P1;PMS_P2;Temp;Humidity;BMP_temperature;BMP_pressure;BME280_temperature;BME280_humidity;BME280_pressure;Samples;Min_cycle;Max_cycle;Signal;HPM_P1;HPM_P2
2022/04/27 00:01:35;;;;;;;;;;;;;;;10.44;66.90;100579.19;5053000;28;20063;-64
2022/04/27 00:04:19;;;;;;;;;;;;;;;10.42;66.87;100579.19;5053684;28;19943;-64
2022/04/27 00:07:04;;;;;;;;;;;;;;;10.42;66.73;100578.28;5053520;28;20015;-64
2022/04/27 00:09:48;;;;;;;;;;;;;;;10.42;66.76;100583.47;5039223;28;19998;-65
2022/04/27 00:12:34;;;;;;;;;;;;;;;10.42;66.85;100571.41;5056822;28;19967;-65
2022/04/27 00:15:20;;;;;;;;;;;;;;;10.40;66.82;100580.84;5041549;28;20288;-64
2022/04/27 00:18:04;;;;;;;;;;;;;;;10.40;66.87;100577.34;5041960;28;20398;-64
2022/04/27 00:20:48;;;;;;;;;;;;;;;10.40;66.73;100577.34;5056765;28;19982;-65
2022/04/27 00:23:34;;;;;;;;;;;;;;;10.39;66.78;100579.09;5056197;28;19972;-65
2022/04/27 00:26:18;;;;;;;;;;;;;;;10.39;66.61;100585.97;5056261;28;19927;-64
2022/04/27 00:29:02;;;;;;;;;;;;;;;10.38;66.84;100586.78;5056307;28;19950;-65
2022/04/27 00:31:46;;;;;;;;;;;;;;;10.38;66.76;100584.19;5056534;28;19946;-64
2022/04/27 00:34:30;;;;;;;;;;;;;;;10.36;66.54;100586.75;5056807;28;19927;-65
2022/04/27 00:37:14;;;;;;;;;;;;;;;10.36;66.62;100578.97;5056452;28;20012;-64
2022/04/27 00:39:58;;;;;;;;;;;;;;;10.35;66.35;100580.66;5041575;28;19928;-65
2022/04/27 00:42:42;;;;;;;;;;;;;;;10.35;66.58;100588.44;5055695;28;19974;-64
2022/04/27 00:45:26;;;;;;;;;;;;;;;10.34;66.73;100586.72;5056019;28;19970;-64
2022/04/27 00:48:10;;;;;;;;;;;;;;;10.33;66.56;100592.75;5041062;28;19944;-64
2022/04/27 00:50:54;;;;;;;;;;;;;;;10.34;66.39;100585.81;5040838;28;19928;-65
2022/04/27 00:53:40;;;;;;;;;;;;;;;10.33;66.69;100584.97;5040980;28;19931;-64
2022/04/27 00:56:24;;;;;;;;;;;;;;;10.33;66.83;100584.06;5056042;28;20030;-64
2022/04/27 00:59:09;;;;;;;;;;;;;;;10.32;66.41;100578.03;5056275;28;20399;-64
2022/04/27 01:01:52;;;;;;;;;;;;;;;10.32;66.78;100575.44;5040993;28;19975;-65
2022/04/27 01:04:37;;;;;;;;;;;;;;;10.31;66.68;100578.84;5055982;28;19928;-65
2022/04/27 01:07:22;;;;;;;;;;;;;;;10.30;66.51;100577.09;5055699;28;19927;-65
2022/04/27 01:10:05;;;;;;;;;;;;;;;10.31;66.36;100586.63;5040869;28;20399;-64
2022/04/27 01:12:49;;;;;;;;;;;;;;;10.29;66.79;100585.72;5055951;28;19974;-64
2022/04/27 01:15:35;;;;;;;;;;;;;;;10.31;66.60;100585.75;5055586;28;20445;-64
2022/04/27 01:18:20;;;;;;;;;;;;;;;10.29;66.82;100590.00;5040842;28;20070;-64
2022/04/27 01:21:04;;;;;;;;;;;;;;;10.29;66.84;100592.59;5041021;28;19943;-65
2022/04/27 01:23:48;;;;;;;;;;;;;;;10.28;66.90;100590.84;5055152;28;20342;-65
2022/04/27 01:26:33;;;;;;;;;;;;;;;10.27;66.83;100584.78;5055224;28;19928;-65
2022/04/27 01:29:17;;;;;;;;;;;;;;;10.27;66.78;100586.53;5055432;28;19971;-65
2022/04/27 01:32:02;;;;;;;;;;;;;;;10.28;66.82;100590.84;5055245;28;19927;-64
2022/04/27 01:34:46;;;;;;;;;;;;;;;10.26;66.78;100587.34;5055579;28;19944;-64
2022/04/27 01:40:34;;;;;;;;;;;;;;;10.25;66.50;100586.47;5055397;28;19967;-65
2022/04/27 01:43:19;;;;;;;;;;;;;;;10.25;66.08;100594.22;5054661;28;19928;-65
2022/04/27 01:46:05;;;;;;;;;;;;;;;10.23;66.57;100590.72;5040385;28;20011;-64
2022/04/27 01:48:50;;;;;;;;;;;;;;;10.21;66.76;100589.81;5040253;28;20470;-64
2022/04/27 01:54:37;;;;;;;;;;;;;;;10.19;66.83;100592.38;5054964;28;19928;-65
2022/04/27 01:57:21;;;;;;;;;;;;;;;10.18;66.24;100600.09;5040084;28;20292;-64
2022/04/27 02:00:06;;;;;;;;;;;;;;;10.18;66.54;100605.28;5054658;28;19927;-64
2022/04/27 02:02:50;;;;;;;;;;;;;;;10.18;66.58;100615.66;5039644;28;19966;-65
2022/04/27 02:05:35;;;;;;;;;;;;;;;10.18;66.61;100608.75;5054663;28;20016;-64
2022/04/27 02:08:18;;;;;;;;;;;;;;;10.19;66.81;100612.22;5039461;28;20008;-64
2022/04/27 02:11:02;;;;;;;;;;;;;;;10.19;66.68;100614.81;5039695;28;19928;-64
2022/04/27 02:13:47;;;;;;;;;;;;;;;10.19;66.79;100614.81;5039396;28;19977;-64
2022/04/27 02:16:33;;;;;;;;;;;;;;;10.19;66.37;100620.00;5039698;28;19928;-64
2022/04/27 02:19:16;;;;;;;;;;;;;;;10.19;66.72;100617.41;5039739;28;19967;-65
2022/04/27 02:22:00;;;;;;;;;;;;;;;10.18;66.87;100615.66;5054253;28;19974;-65
2022/04/27 02:24:44;;;;;;;;;;;;;;;10.17;66.79;100614.75;5039619;28;19931;-64
2022/04/27 02:27:28;;;;;;;;;;;;;;;10.16;66.46;100610.41;5039365;28;19927;-64
2022/04/27 02:30:12;;;;;;;;;;;;;;;10.15;66.72;100611.25;5039587;28;19928;-65
2022/04/27 02:32:56;;;;;;;;;;;;;;;10.14;66.37;100611.22;5053878;28;19928;-65
2022/04/27 02:35:41;;;;;;;;;;;;;;;10.14;66.77;100619.84;5054569;28;19951;-64
2022/04/27 02:38:26;;;;;;;;;;;;;;;10.13;66.71;100622.41;5053689;28;20327;-64
2022/04/27 02:41:10;;;;;;;;;;;;;;;10.13;66.88;100619.81;5038736;28;19967;-65
2022/04/27 02:43:55;;;;;;;;;;;;;;;10.13;66.83;100625.84;5053573;28;19975;-64
2022/04/27 02:46:39;;;;;;;;;;;;;;;10.13;66.51;100619.81;5038743;28;19931;-64
2022/04/27 02:52:25;;;;;;;;;;;;;;;10.11;66.78;100626.66;5054134;28;19943;-64
2022/04/27 02:55:09;;;;;;;;;;;;;;;10.10;66.60;100625.81;5053721;28;19985;-64
2022/04/27 02:57:53;;;;;;;;;;;;;;;10.09;66.61;100617.97;5053566;28;19927;-65
2022/04/27 03:00:37;;;;;;;;;;;;;;;10.08;66.82;100627.47;5038659;28;19987;-65
2022/04/27 03:03:21;;;;;;;;;;;;;;;10.09;66.87;100630.94;5053573;28;19942;-64
2022/04/27 03:06:05;;;;;;;;;;;;;;;10.08;66.77;100635.25;5053859;28;20031;-64
2022/04/27 03:08:49;;;;;;;;;;;;;;;10.08;66.65;100634.34;5053596;28;19966;-65
2022/04/27 03:11:33;;;;;;;;;;;;;;;10.06;66.83;100627.41;5038532;28;20010;-64
2022/04/27 03:14:16;;;;;;;;;;;;;;;10.06;66.87;100631.72;5053631;28;20406;-64
2022/04/27 03:17:00;;;;;;;;;;;;;;;10.05;66.66;100633.41;5053744;28;19963;-65
2022/04/27 03:19:44;;;;;;;;;;;;;;;10.03;66.95;100632.53;5053507;28;19932;-64
2022/04/27 03:22:28;;;;;;;;;;;;;;;10.03;66.85;100626.47;5053836;28;19928;-64
2022/04/27 03:25:12;;;;;;;;;;;;;;;10.03;66.54;100629.94;5053433;28;19927;-65
2022/04/27 03:27:56;;;;;;;;;;;;;;;10.02;66.65;100629.88;5053504;28;19974;-65
2022/04/27 03:30:40;;;;;;;;;;;;;;;10.02;66.55;100633.38;5053778;28;20425;-64
2022/04/27 03:33:24;;;;;;;;;;;;;;;10.02;66.68;100635.06;5038761;28;20402;-64
2022/04/27 03:36:08;;;;;;;;;;;;;;;10.00;66.60;100629.84;5038217;28;20378;-64
2022/04/27 03:38:52;;;;;;;;;;;;;;;10.00;66.91;100631.53;5038657;28;19928;-64
2022/04/27 03:41:36;;;;;;;;;;;;;;;10.00;66.86;100634.13;5053060;28;19927;-64
2022/04/27 03:44:21;;;;;;;;;;;;;;;9.99;66.82;100634.97;5053166;28;19974;-64
2022/04/27 03:47:05;;;;;;;;;;;;;;;9.98;66.69;100628.03;5042617;28;19974;-64
2022/04/27 03:49:49;;;;;;;;;;;;;;;9.98;66.67;100640.97;5057087;28;19928;-64
2022/04/27 03:52:33;;;;;;;;;;;;;;;9.97;66.94;100637.53;5041932;28;19967;-65
2022/04/27 03:55:17;;;;;;;;;;;;;;;9.97;67.07;100639.22;5042272;28;19927;-64
2022/04/27 03:58:02;;;;;;;;;;;;;;;9.96;66.87;100653.91;5042104;28;19994;-65
2022/04/27 04:00:45;;;;;;;;;;;;;;;9.95;66.91;100646.97;5057005;28;20005;-64
2022/04/27 04:03:29;;;;;;;;;;;;;;;9.95;66.57;100652.13;5042195;28;19928;-65
2022/04/27 04:06:13;;;;;;;;;;;;;;;9.94;66.97;100647.78;5056917;28;20307;-64
2022/04/27 04:08:57;;;;;;;;;;;;;;;9.93;66.65;100648.63;5056993;28;19929;-65
2022/04/27 04:11:41;;;;;;;;;;;;;;;9.93;67.05;100655.53;5056813;28;19975;-64
2022/04/27 04:14:25;;;;;;;;;;;;;;;9.93;66.92;100656.38;5056801;28;19931;-64
2022/04/27 04:17:09;;;;;;;;;;;;;;;9.93;66.78;100655.53;5056908;28;19951;-64
2022/04/27 04:19:53;;;;;;;;;;;;;;;9.90;66.68;100656.28;5056509;28;20007;-64
2022/04/27 04:22:37;;;;;;;;;;;;;;;9.90;66.95;100652.00;5056368;28;19928;-65
2022/04/27 04:28:29;;;;;;;;;;;;;;;9.89;66.90;100651.94;5056289;28;20298;-64
2022/04/27 04:31:14;;;;;;;;;;;;;;;9.88;66.59;100655.41;5041728;28;19928;-64
2022/04/27 04:33:58;;;;;;;;;;;;;;;9.87;66.62;100651.91;5041821;28;20025;-64
2022/04/27 04:36:41;;;;;;;;;;;;;;;9.87;66.72;100659.69;5056220;28;19970;-64
2022/04/27 04:39:26;;;;;;;;;;;;;;;9.86;66.89;100657.94;5056566;28;19927;-64
2022/04/27 04:42:10;;;;;;;;;;;;;;;9.87;66.67;100666.59;5056116;28;20300;-64
2022/04/27 04:44:54;;;;;;;;;;;;;;;9.87;66.84;100671.78;5055803;28;19927;-64
2022/04/27 04:47:38;;;;;;;;;;;;;;;9.85;66.64;100670.84;5055848;28;19930;-64
2022/04/27 04:50:22;;;;;;;;;;;;;;;9.85;66.70;100673.44;5041170;28;20011;-64
2022/04/27 04:53:06;;;;;;;;;;;;;;;9.85;66.92;100676.03;5055979;28;19928;-64
2022/04/27 04:55:50;;;;;;;;;;;;;;;9.84;66.69;100682.03;5055840;28;19928;-64
2022/04/27 04:58:33;;;;;;;;;;;;;;;9.84;66.71;100680.31;5055946;28;20330;-64
2022/04/27 05:01:17;;;;;;;;;;;;;;;9.82;66.53;100681.97;5056244;28;19927;-64
2022/04/27 05:04:01;;;;;;;;;;;;;;;9.82;66.65;100687.16;5056055;28;19974;-65
2022/04/27 05:06:48;;;;;;;;;;;;;;;9.82;66.61;100686.28;5040874;28;19932;-64
2022/04/27 05:09:32;;;;;;;;;;;;;;;9.80;66.49;100686.25;5040949;28;20283;-64
2022/04/27 05:12:16;;;;;;;;;;;;;;;9.80;66.72;100687.94;5055203;28;20015;-65
2022/04/27 05:15:00;;;;;;;;;;;;;;;9.81;66.56;100697.47;5055580;28;19974;-64
2022/04/27 05:17:44;;;;;;;;;;;;;;;9.80;66.57;100693.13;5040994;28;19974;-64
2022/04/27 05:20:28;;;;;;;;;;;;;;;9.79;66.97;100696.53;5055079;28;19928;-64
2022/04/27 05:23:12;;;;;;;;;;;;;;;9.78;66.57;100699.97;5040044;28;19928;-64
2022/04/27 05:25:55;;;;;;;;;;;;;;;9.78;66.80;100711.22;5055473;28;19944;-64
2022/04/27 05:31:54;;;;;;;;;;;;;;;9.75;66.55;100721.47;5055068;28;19928;-64
2022/04/27 05:34:39;;;;;;;;;;;;;;;9.74;66.46;100723.16;5055177;28;20017;-64
2022/04/27 05:37:23;;;;;;;;;;;;;;;9.72;66.60;100730.03;5054732;28;19942;-64
2022/04/27 05:40:08;;;;;;;;;;;;;;;9.72;66.58;100729.13;5040289;28;20020;-65
2022/04/27 05:42:51;;;;;;;;;;;;;;;9.72;66.64;100729.13;5055086;28;19974;-64
2022/04/27 05:45:36;;;;;;;;;;;;;;;9.71;66.72;100728.28;5055095;28;20019;-65
2022/04/27 05:48:19;;;;;;;;;;;;;;;9.71;66.55;100738.63;5054745;28;20403;-64
2022/04/27 05:51:03;;;;;;;;;;;;;;;9.71;66.69;100740.31;5055036;28;19977;-64
2022/04/27 05:53:47;;;;;;;;;;;;;;;9.70;66.93;100749.81;5039824;28;20395;-65
2022/04/27 05:56:31;;;;;;;;;;;;;;;9.69;66.77;100745.47;5040478;28;20380;-64
2022/04/27 05:59:26;;;;;;;;;;;;;;;9.69;66.97;100749.75;5040059;28;19979;-65
2022/04/27 06:02:10;;;;;;;;;;;;;;;9.70;66.73;100746.31;5039429;28;19986;-65
2022/04/27 06:04:54;;;;;;;;;;;;;;;9.69;66.71;100752.31;5040233;28;20359;-64
2022/04/27 06:07:38;;;;;;;;;;;;;;;9.68;66.70;100761.81;5039406;28;19982;-65
2022/04/27 06:10:23;;;;;;;;;;;;;;;9.68;66.76;100761.81;5039581;28;19927;-64
2022/04/27 06:13:06;;;;;;;;;;;;;;;9.68;66.82;100761.81;5054338;28;19928;-65
2022/04/27 06:15:51;;;;;;;;;;;;;;;9.68;66.69;100766.09;5054783;28;19928;-65
2022/04/27 06:18:34;;;;;;;;;;;;;;;9.66;66.71;100768.66;5055018;28;20003;-64
2022/04/27 06:21:18;;;;;;;;;;;;;;;9.65;66.65;100766.03;5054434;28;19927;-64
2022/04/27 06:24:04;;;;;;;;;;;;;;;9.63;66.90;100772.88;5038830;28;19927;-64
2022/04/27 06:26:48;;;;;;;;;;;;;;;9.62;66.73;100764.19;5039258;28;19928;-64
2022/04/27 06:29:32;;;;;;;;;;;;;;;9.63;66.63;100778.03;5053801;28;19943;-64
2022/04/27 06:32:16;;;;;;;;;;;;;;;9.60;66.79;100779.69;5039520;28;19982;-64
2022/04/27 06:35:00;;;;;;;;;;;;;;;9.59;66.70;100770.16;5039629;28;19981;-65
2022/04/27 06:37:45;;;;;;;;;;;;;;;9.57;66.71;100771.81;5053995;28;20043;-65
2022/04/27 06:40:34;;;;;;;;;;;;;;;9.57;66.79;100777.00;5054081;28;19928;-64
2022/04/27 06:43:18;;;;;;;;;;;;;;;9.58;66.61;100777.88;5053631;28;20440;-64
2022/04/27 06:46:09;;;;;;;;;;;;;;;9.56;66.90;100783.00;5038987;28;19971;-64
2022/04/27 06:48:55;;;;;;;;;;;;;;;9.58;66.87;100785.63;5039244;28;20024;-64
2022/04/27 06:51:39;;;;;;;;;;;;;;;9.57;66.81;100786.50;5054327;28;19932;-64
2022/04/27 06:54:23;;;;;;;;;;;;;;;9.57;66.78;100787.34;5054016;28;19928;-64
2022/04/27 06:57:07;;;;;;;;;;;;;;;9.57;67.12;100786.50;5053883;28;20303;-65
2022/04/27 06:59:51;;;;;;;;;;;;;;;9.55;67.02;100788.16;5053958;28;20029;-64
2022/04/27 07:02:35;;;;;;;;;;;;;;;9.55;66.85;100790.72;5038855;28;20318;-64
2022/04/27 07:05:20;;;;;;;;;;;;;;;9.53;66.97;100793.25;5054198;28;19927;-64
2022/04/27 07:08:05;;;;;;;;;;;;;;;9.53;67.19;100802.75;5039110;28;19966;-64
2022/04/27 07:10:49;;;;;;;;;;;;;;;9.53;66.79;100801.03;5053301;28;19928;-64
2022/04/27 07:13:33;;;;;;;;;;;;;;;9.53;67.27;100800.16;5053213;28;19927;-64
2022/04/27 07:16:17;;;;;;;;;;;;;;;9.54;66.93;100804.50;5038466;28;19928;-65
2022/04/27 07:19:01;;;;;;;;;;;;;;;9.55;67.06;100801.09;5040332;28;19928;-64
2022/04/27 07:21:45;;;;;;;;;;;;;;;9.53;67.25;100797.56;5057272;28;20311;-64
2022/04/27 07:24:29;;;;;;;;;;;;;;;9.53;67.11;100802.75;5057766;28;19966;-65
2022/04/27 07:27:13;;;;;;;;;;;;;;;9.53;67.15;100803.59;5042999;28;20441;-64
2022/04/27 07:29:57;;;;;;;;;;;;;;;9.54;67.02;100799.31;5057190;28;20298;-64
2022/04/27 07:32:41;;;;;;;;;;;;;;;9.50;67.20;100803.50;5057774;28;20023;-64
2022/04/27 07:35:24;;;;;;;;;;;;;;;9.51;67.35;100809.56;5057245;28;19928;-65
2022/04/27 07:38:08;;;;;;;;;;;;;;;9.51;67.16;100802.66;5057755;28;19927;-65
2022/04/27 07:40:52;;;;;;;;;;;;;;;9.53;67.11;100805.31;5057599;28;19982;-65
2022/04/27 07:43:36;;;;;;;;;;;;;;;9.53;67.17;100811.38;5042595;28;19927;-65
2022/04/27 07:46:20;;;;;;;;;;;;;;;9.52;67.13;100817.38;5057355;28;20345;-64
2022/04/27 07:49:04;;;;;;;;;;;;;;;9.53;67.15;100823.44;5057339;28;19928;-65
2022/04/27 07:51:48;;;;;;;;;;;;;;;9.54;67.18;100827.78;5057061;28;19927;-64
2022/04/27 07:54:32;;;;;;;;;;;;;;;9.54;67.45;100830.38;5042410;28;19927;-64
2022/04/27 07:57:16;;;;;;;;;;;;;;;9.52;67.42;100834.63;5041909;28;19971;-65
2022/04/27 08:00:01;;;;;;;;;;;;;;;9.52;67.17;100838.06;5042188;28;19959;-64
2022/04/27 08:02:47;;;;;;;;;;;;;;;9.52;67.28;100832.03;5041901;28;20390;-64
2022/04/27 08:05:31;;;;;;;;;;;;;;;9.52;67.35;100826.84;5041612;28;20327;-64
2022/04/27 08:08:15;;;;;;;;;;;;;;;9.54;67.22;100835.56;5041938;28;19931;-64
2022/04/27 08:10:59;;;;;;;;;;;;;;;9.53;67.05;100841.56;5056704;28;19928;-64
2022/04/27 08:13:44;;;;;;;;;;;;;;;9.53;67.20;100842.41;5056918;28;19987;-65
2022/04/27 08:16:27;;;;;;;;;;;;;;;9.53;67.01;100847.59;5057092;28;19974;-64
2022/04/27 08:19:13;;;;;;;;;;;;;;;9.54;67.11;100840.72;5056609;28;19971;-64
2022/04/27 08:21:59;;;;;;;;;;;;;;;9.55;67.44;100851.13;5056641;28;19928;-64
2022/04/27 08:24:43;;;;;;;;;;;;;;;9.58;67.25;100847.75;5041403;28;19967;-64
2022/04/27 08:27:27;;;;;;;;;;;;;;;9.58;67.22;100846.06;5056513;28;20394;-64
2022/04/27 08:30:11;;;;;;;;;;;;;;;9.60;67.26;100849.56;5056404;28;19928;-64
2022/04/27 08:32:59;;;;;;;;;;;;;;;9.62;67.49;100854.78;5041218;28;19951;-65
2022/04/27 08:35:43;;;;;;;;;;;;;;;9.63;67.15;100851.38;5041576;28;19928;-64
2022/04/27 08:38:27;;;;;;;;;;;;;;;9.66;67.16;100851.47;5056107;28;20307;-64
2022/04/27 08:41:11;;;;;;;;;;;;;;;9.69;67.01;100858.44;5056153;28;20280;-64
2022/04/27 08:43:56;;;;;;;;;;;;;;;9.68;67.44;100856.69;5056310;28;20342;-64
2022/04/27 08:46:41;;;;;;;;;;;;;;;9.69;67.49;100861.03;5041177;28;19927;-64
2022/04/27 08:49:25;;;;;;;;;;;;;;;9.71;67.35;100857.69;5041482;28;19931;-64
2022/04/27 08:52:11;;;;;;;;;;;;;;;9.73;67.07;100852.56;5041494;28;19927;-64
2022/04/27 08:54:55;;;;;;;;;;;;;;;9.72;67.39;100859.47;5041216;28;19928;-64
2022/04/27 08:57:39;;;;;;;;;;;;;;;9.74;67.15;100860.34;5055929;28;19946;-64
2022/04/27 09:00:23;;;;;;;;;;;;;;;9.75;67.32;100862.13;5056253;28;19974;-64
2022/04/27 09:03:27;;;;;;;;;;;;;;;9.77;67.26;100853.53;5055690;28;19928;-64
2022/04/27 09:06:12;;;;;;;;;;;;;;;9.78;67.23;100857.88;5055657;28;20327;-65
2022/04/27 09:08:56;;;;;;;;;;;;;;;9.78;67.45;100853.59;5041158;28;20291;-64
2022/04/27 09:11:40;;;;;;;;;;;;;;;9.84;66.95;100858.09;5040579;28;19927;-64
2022/04/27 09:14:35;;;;;;;;;;;;;;;9.82;67.09;100857.16;5055655;28;19928;-64
2022/04/27 09:23:37;;;;;;;;;;;;;;;9.87;67.37;100860.78;5055119;28;19943;-64
2022/04/27 09:26:22;;;;;;;;;;;;;;;9.88;67.27;100857.34;5055324;28;19967;-64
2022/04/27 09:29:06;;;;;;;;;;;;;;;9.89;67.37;100856.50;5040213;28;19927;-64
2022/04/27 09:31:57;;;;;;;;;;;;;;;9.93;67.35;100858.38;5054941;28;19943;-65
2022/04/27 09:34:45;;;;;;;;;;;;;;;9.94;67.46;100865.31;5040523;28;19944;-64
2022/04/27 09:37:36;;;;;;;;;;;;;;;9.95;67.27;100868.78;5040556;28;19967;-64
2022/04/27 09:40:20;;;;;;;;;;;;;;;9.97;67.26;100865.41;5040440;28;19928;-64
2022/04/27 09:43:04;;;;;;;;;;;;;;;10.00;67.37;100864.63;5054153;28;19971;-64
2022/04/27 09:45:48;;;;;;;;;;;;;;;10.01;67.24;100867.28;5055450;28;20354;-64
2022/04/27 09:48:32;;;;;;;;;;;;;;;10.04;67.13;100867.34;5055322;28;20307;-64
2022/04/27 09:51:16;;;;;;;;;;;;;;;10.06;67.19;100868.28;5055078;28;19927;-64
2022/04/27 09:54:01;;;;;;;;;;;;;;;10.08;67.21;100864.84;5039839;28;19928;-64
2022/04/27 09:56:48;;;;;;;;;;;;;;;10.09;67.18;100867.50;5039648;28;20398;-64
2022/04/27 09:59:32;;;;;;;;;;;;;;;10.10;67.15;100879.63;5040588;28;19944;-65
2022/04/27 10:02:24;;;;;;;;;;;;;;;10.09;66.98;100864.03;5039812;28;19943;-64
2022/04/27 10:05:08;;;;;;;;;;;;;;;10.11;67.05;100860.66;5039565;28;19942;-64
2022/04/27 10:07:54;;;;;;;;;;;;;;;10.13;66.91;100871.06;5039911;28;19927;-64
2022/04/27 10:10:39;;;;;;;;;;;;;;;10.15;67.05;100853.88;5054546;28;20009;-64
2022/04/27 10:13:25;;;;;;;;;;;;;;;10.16;67.06;100863.41;5039361;28;20351;-64
2022/04/27 10:16:09;;;;;;;;;;;;;;;10.15;67.19;100856.47;5040035;28;19927;-64
2022/04/27 10:18:53;;;;;;;;;;;;;;;10.15;67.09;100857.31;5054408;28;19928;-64
2022/04/27 10:21:39;;;;;;;;;;;;;;;10.15;66.85;100846.97;5054739;28;20433;-64
2022/04/27 10:24:41;;;;;;;;;;;;;;;10.16;67.12;100847.84;5039200;28;19974;-64
2022/04/27 10:27:25;;;;;;;;;;;;;;;10.18;66.98;100839.28;5039519;28;20288;-64
2022/04/27 10:30:11;;;;;;;;;;;;;;;10.16;67.05;100845.25;5053817;28;20074;-64
2022/04/27 10:32:55;;;;;;;;;;;;;;;10.16;66.91;100838.34;5054319;28;20276;-65
2022/04/27 10:35:39;;;;;;;;;;;;;;;10.20;66.86;100844.50;5054228;28;20027;-65
2022/04/27 10:38:23;;;;;;;;;;;;;;;10.22;67.01;100842.84;5038821;28;19947;-64
2022/04/27 10:41:07;;;;;;;;;;;;;;;10.23;67.01;100842.00;5038754;28;20437;-64
2022/04/27 10:43:51;;;;;;;;;;;;;;;10.23;67.04;100839.41;5053887;28;19975;-64
2022/04/27 10:46:39;;;;;;;;;;;;;;;10.24;66.98;100833.41;5053856;28;20078;-65
2022/04/27 10:49:24;;;;;;;;;;;;;;;10.22;66.94;100829.88;5054024;28;19928;-65
2022/04/27 10:52:08;;;;;;;;;;;;;;;10.23;66.93;100835.97;5054135;28;19975;-64
2022/04/27 10:54:52;;;;;;;;;;;;;;;10.23;67.04;100830.78;5053508;28;20035;-65
2022/04/27 10:57:39;;;;;;;;;;;;;;;10.24;66.74;100836.00;5054166;28;20008;-64
2022/04/27 11:00:23;;;;;;;;;;;;;;;10.27;66.96;100832.63;5039335;28;19928;-64
2022/04/27 11:03:20;;;;;;;;;;;;;;;10.27;66.86;100837.81;5053721;28;19927;-64
2022/04/27 11:06:09;;;;;;;;;;;;;;;10.27;66.68;100830.06;5021638;28;20281;-64
2022/04/27 11:09:02;;;;;;;;;;;;;;;10.27;66.60;100828.31;5038672;28;19927;-64
2022/04/27 11:11:53;;;;;;;;;;;;;;;10.30;66.93;100838.78;5038417;28;19976;-64
2022/04/27 11:14:37;;;;;;;;;;;;;;;10.28;67.00;100835.25;5039035;28;19927;-65
2022/04/27 11:17:33;;;;;;;;;;;;;;;10.31;66.74;100839.66;5038464;28;19927;-64
2022/04/27 11:20:33;;;;;;;;;;;;;;;10.31;66.95;100834.47;5038882;28;20431;-64
2022/04/27 11:23:21;;;;;;;;;;;;;;;10.34;66.84;100831.97;5038492;28;19927;-64
2022/04/27 11:26:06;;;;;;;;;;;;;;;10.33;66.89;100838.88;5053906;28;19927;-64
2022/04/27 11:28:52;;;;;;;;;;;;;;;10.33;66.96;100840.56;5038341;28;19928;-64
2022/04/27 11:31:37;;;;;;;;;;;;;;;10.34;66.76;100831.97;5038344;28;19971;-64
2022/04/27 11:34:27;;;;;;;;;;;;;;;10.35;66.64;100824.22;5053463;28;19983;-64
2022/04/27 11:37:15;;;;;;;;;;;;;;;10.39;66.66;100835.63;5038779;28;19927;-64
2022/04/27 11:40:12;;;;;;;;;;;;;;;10.37;66.90;100829.47;5038702;28;20018;-63
2022/04/27 11:42:58;;;;;;;;;;;;;;;10.38;66.99;100825.16;5053682;28;19944;-64
2022/04/27 11:45:42;;;;;;;;;;;;;;;10.36;66.68;100832.91;5053455;28;20357;-64
2022/04/27 11:48:29;;;;;;;;;;;;;;;10.39;66.62;100827.84;5038713;28;20295;-65
2022/04/27 11:51:13;;;;;;;;;;;;;;;10.39;66.74;100822.66;5053249;28;19928;-64
2022/04/27 11:53:57;;;;;;;;;;;;;;;10.41;66.82;100820.09;5053645;28;19959;-64
2022/04/27 11:56:42;;;;;;;;;;;;;;;10.41;66.85;100822.69;5053041;28;19927;-64
2022/04/27 11:59:51;;;;;;;;;;;;;;;10.43;66.82;100824.47;5053294;28;20022;-64
2022/04/27 12:02:35;;;;;;;;;;;;;;;10.44;66.82;100820.19;5053077;28;19928;-65
2022/04/27 12:05:27;;;;;;;;;;;;;;;10.43;66.68;100821.03;5038405;28;20311;-64
2022/04/27 12:08:17;;;;;;;;;;;;;;;10.43;66.80;100821.03;5057299;28;19974;-64
2022/04/27 12:11:01;;;;;;;;;;;;;;;10.43;66.77;100814.13;5056971;28;19943;-64
2022/04/27 12:13:45;;;;;;;;;;;;;;;10.46;66.79;100823.72;5042050;28;19931;-64
2022/04/27 12:16:30;;;;;;;;;;;;;;;10.46;66.72;100826.31;5042048;28;20441;-64
2022/04/27 12:19:13;;;;;;;;;;;;;;;10.46;66.56;100814.22;5057193;28;19966;-64
2022/04/27 12:22:10;;;;;;;;;;;;;;;10.45;66.64;100809.88;5041517;28;19959;-64
2022/04/27 12:25:00;;;;;;;;;;;;;;;10.47;66.84;100807.34;5041881;28;20301;-64
2022/04/27 12:27:44;;;;;;;;;;;;;;;10.46;66.73;100806.44;5056995;28;20319;-64
2022/04/27 12:30:28;;;;;;;;;;;;;;;10.49;66.78;100803.09;5041626;28;19942;-65
2022/04/27 12:33:12;;;;;;;;;;;;;;;10.49;66.71;100810.84;5056350;28;19928;-65
2022/04/27 12:39:03;;;;;;;;;;;;;;;10.51;66.59;100801.38;5056413;28;19928;-64
2022/04/27 12:41:49;;;;;;;;;;;;;;;10.50;66.70;100789.28;5056399;28;19982;-64
2022/04/27 12:44:44;;;;;;;;;;;;;;;10.51;66.78;100793.59;5040870;28;19928;-64
2022/04/27 12:47:44;;;;;;;;;;;;;;;10.50;66.33;100795.34;5041292;28;19928;-64
2022/04/27 12:50:29;;;;;;;;;;;;;;;10.54;66.71;100792.84;5056566;28;20395;-65
2022/04/27 12:53:16;;;;;;;;;;;;;;;10.51;66.84;100788.41;5056533;28;20284;-64
2022/04/27 12:56:08;;;;;;;;;;;;;;;10.53;66.68;100786.75;5056012;28;19944;-64
2022/04/27 12:59:11;;;;;;;;;;;;;;;10.51;66.74;100786.72;5056020;28;20392;-64
2022/04/27 13:02:00;;;;;;;;;;;;;;;10.51;66.36;100791.91;5041103;28;19982;-64
2022/04/27 13:04:46;;;;;;;;;;;;;;;10.51;66.44;100788.41;5040789;28;19929;-64
2022/04/27 13:07:30;;;;;;;;;;;;;;;10.54;66.57;100788.50;5041137;28;19927;-64
2022/04/27 13:13:17;;;;;;;;;;;;;;;10.53;66.79;100775.53;5055853;28;20441;-64
2022/04/27 13:16:01;;;;;;;;;;;;;;;10.55;66.28;100773.88;5041231;28;19967;-64
2022/04/27 13:18:45;;;;;;;;;;;;;;;10.54;66.80;100770.38;5040993;28;19931;-64
2022/04/27 13:21:29;;;;;;;;;;;;;;;10.56;66.66;100768.72;5055389;28;19928;-64
2022/04/27 13:24:14;;;;;;;;;;;;;;;10.56;66.78;100767.84;5055463;28;19928;-64
2022/04/27 13:26:58;;;;;;;;;;;;;;;10.56;66.78;100766.13;5055318;28;20010;-64
2022/04/27 13:29:42;;;;;;;;;;;;;;;10.59;66.74;100768.78;5055421;28;19927;-64
2022/04/27 13:32:26;;;;;;;;;;;;;;;10.60;66.42;100769.66;5055246;28;20473;-64
2022/04/27 13:35:10;;;;;;;;;;;;;;;10.61;66.83;100767.13;5040218;28;20327;-64
2022/04/27 13:37:54;;;;;;;;;;;;;;;10.62;66.51;100755.03;5055223;28;19971;-64
2022/04/27 13:40:38;;;;;;;;;;;;;;;10.63;66.34;100760.28;5055220;28;19978;-65
2022/04/27 13:43:22;;;;;;;;;;;;;;;10.63;66.35;100757.69;5055132;28;20441;-65
2022/04/27 13:46:08;;;;;;;;;;;;;;;10.64;66.35;100766.31;5055250;28;19931;-64
2022/04/27 13:48:51;;;;;;;;;;;;;;;10.64;66.57;100766.31;5040639;28;19927;-64
2022/04/27 13:51:35;;;;;;;;;;;;;;;10.66;66.48;100756.88;5054991;28;20015;-64
2022/04/27 13:54:19;;;;;;;;;;;;;;;10.66;66.68;100756.88;5055300;28;20402;-64
2022/04/27 13:57:03;;;;;;;;;;;;;;;10.65;66.56;100756.00;5054808;28;19950;-64
2022/04/27 13:59:47;;;;;;;;;;;;;;;10.66;66.31;100747.41;5039794;28;20406;-65
2022/04/27 14:02:31;;;;;;;;;;;;;;;10.70;66.36;100750.06;5054800;28;20413;-65
2022/04/27 14:05:15;;;;;;;;;;;;;;;10.70;66.55;100742.28;5039567;28;19974;-65
2022/04/27 14:07:59;;;;;;;;;;;;;;;10.70;66.20;100742.28;5039871;28;19994;-64
2022/04/27 14:10:43;;;;;;;;;;;;;;;10.71;66.38;100744.94;5054451;28;19927;-64
2022/04/27 14:13:27;;;;;;;;;;;;;;;10.68;66.38;100742.25;5054495;28;19978;-64
2022/04/27 14:19:13;;;;;;;;;;;;;;;10.71;66.67;100731.97;5054264;28;19970;-63
2022/04/27 14:21:58;;;;;;;;;;;;;;;10.70;66.47;100735.41;5054415;28;19982;-63
2022/04/27 14:24:42;;;;;;;;;;;;;;;10.72;66.33;100730.22;5039014;28;19975;-63
2022/04/27 14:27:26;;;;;;;;;;;;;;;10.74;66.22;100731.16;5054536;28;19948;-63
2022/04/27 14:30:11;;;;;;;;;;;;;;;10.76;66.43;100737.25;5038746;28;20407;-63
2022/04/27 14:32:59;;;;;;;;;;;;;;;10.77;66.18;100733.84;5039356;28;20446;-63
2022/04/27 14:35:45;;;;;;;;;;;;;;;10.76;66.27;100738.13;5039346;28;19974;-64
2022/04/27 14:38:35;;;;;;;;;;;;;;;10.78;66.22;100733.88;5038994;28;19927;-66
2022/04/27 14:41:20;;;;;;;;;;;;;;;10.78;66.10;100728.69;5039016;28;20011;-66
2022/04/27 14:44:06;;;;;;;;;;;;;;;10.81;66.04;100731.34;5038930;28;19928;-66